Time;durP1;ratioP1;P1;durP2;ratioP2;P2;SDS_P1;SDS_P2;PMS_P1;PMS_P2;Temp;Humidity;BMP_temperature;BMP_pressure;BME280_temperature;BME280_humidity;BME280_pressure;Samples;Min_cycle;Max_cycle;Signal;HPM_P1;HPM_P2
2023/08/01 00:00:20;;;;;;;2.28;0.38;;;;;;;15.58;74.20;99998.22;4985126;28;20062;-83
2023/08/01 00:02:46;;;;;;;4.45;0.70;;;;;;;15.55;74.29;99995.72;4987148;28;20046;-83
2023/08/01 00:05:13;;;;;;;3.00;0.50;;;;;;;15.56;74.26;99993.94;4983193;28;20055;-83
2023/08/01 00:07:40;;;;;;;4.47;0.70;;;;;;;15.58;74.33;99998.22;4986160;28;20049;-82
2023/08/01 00:10:08;;;;;;;2.70;0.38;;;;;;;15.58;74.35;99998.22;4977229;28;20055;-83
2023/08/01 00:12:35;;;;;;;2.47;0.30;;;;;;;15.59;74.31;99996.41;4985049;28;20050;-83
2023/08/01 00:15:05;;;;;;;2.63;0.47;;;;;;;15.59;74.32;99993.78;4977848;28;20096;-83
2023/08/01 00:17:32;;;;;;;2.13;0.70;;;;;;;15.56;74.53;99983.41;4982241;28;20132;-82
2023/08/01 00:19:59;;;;;;;5.85;0.45;;;;;;;15.34;74.45;99950.31;4989612;28;20058;-82
2023/08/01 00:22:26;;;;;;;1.58;0.32;;;;;;;15.28;74.29;99940.09;4979658;28;20064;-82
2023/08/01 00:24:52;;;;;;;2.75;0.40;;;;;;;15.58;74.66;99992.09;4991397;28;20039;-82
2023/08/01 00:27:19;;;;;;;2.22;0.40;;;;;;;15.58;74.71;99974.50;4988575;28;20418;-83
2023/08/01 00:29:46;;;;;;;1.33;0.40;;;;;;;15.57;74.58;99983.34;4988333;28;20056;-83
2023/08/01 00:32:15;;;;;;;1.88;0.40;;;;;;;15.51;74.41;99971.34;4984889;28;20645;-83
2023/08/01 00:34:42;;;;;;;1.10;0.32;;;;;;;15.56;74.33;99975.53;4987758;28;20054;-84
2023/08/01 00:37:08;;;;;;;2.15;0.60;;;;;;;15.56;74.50;99979.00;4979704;28;20078;-83
2023/08/01 00:39:35;;;;;;;1.73;0.40;;;;;;;15.56;74.61;99989.53;4983356;28;20531;-83
2023/08/01 00:42:03;;;;;;;7.50;0.50;;;;;;;15.56;74.68;99989.53;4988730;28;20057;-85
2023/08/01 00:44:29;;;;;;;2.47;0.40;;;;;;;15.56;74.89;99980.78;4985612;28;20050;-82
2023/08/01 00:46:56;;;;;;;3.50;1.08;;;;;;;15.54;74.95;99972.97;4988690;28;20060;-82
2023/08/01 00:49:25;;;;;;;1.63;0.50;;;;;;;15.56;75.02;99978.16;4984331;28;20054;-82
2023/08/01 00:51:52;;;;;;;6.45;0.63;;;;;;;15.53;74.71;99971.25;4982679;28;20046;-83
2023/08/01 00:54:20;;;;;;;1.20;0.30;;;;;;;15.24;74.41;99925.41;4990499;28;20046;-81
2023/08/01 00:56:46;;;;;;;1.85;0.32;;;;;;;15.46;74.29;99956.72;4981750;28;20043;-82
2023/08/01 00:59:13;;;;;;;2.35;0.40;;;;;;;15.53;74.50;99966.84;4993249;28;20410;-82
2023/08/01 01:01:40;;;;;;;1.58;0.20;;;;;;;15.55;74.13;99969.41;4986631;28;20097;-83
2023/08/01 01:04:07;;;;;;;1.10;0.30;;;;;;;15.55;73.96;99972.03;4990187;28;20426;-81
2023/08/01 01:06:42;;;;;;;0.80;0.35;;;;;;;15.55;73.65;99960.66;4989832;28;20061;-82
2023/08/01 01:09:16;;;;;;;0.20;0.20;;;;;;;15.55;73.52;99952.78;4988294;28;20084;-81
2023/08/01 01:11:43;;;;;;;6.30;0.63;;;;;;;15.51;73.34;99958.19;4982030;28;20043;-81
2023/08/01 01:14:10;;;;;;;0.60;0.30;;;;;;;15.35;72.86;99923.06;4976277;28;20053;-82
2023/08/01 01:16:37;;;;;;;1.65;0.20;;;;;;;15.50;72.92;99943.31;4978901;28;20053;-82
2023/08/01 01:19:10;;;;;;;0.88;0.10;;;;;;;15.49;72.61;99938.16;4980624;28;20057;-81
2023/08/01 01:21:40;;;;;;;0.70;0.20;;;;;;;15.47;72.53;99940.84;4983721;28;20137;-82
2023/08/01 01:24:10;;;;;;;0.30;0.20;;;;;;;15.46;72.32;99931.25;4990941;28;20497;-81
2023/08/01 01:26:38;;;;;;;1.75;0.30;;;;;;;15.42;72.39;99920.97;4983535;28;20178;-82
2023/08/01 01:29:08;;;;;;;2.55;0.20;;;;;;;15.40;72.36;99914.94;4980688;28;20058;-81
2023/08/01 01:31:37;;;;;;;0.88;0.22;;;;;;;15.44;72.38;99925.22;4982421;28;20133;-81
2023/08/01 01:34:04;;;;;;;1.80;0.30;;;;;;;15.33;72.25;99911.75;4985338;28;20051;-81
2023/08/01 01:36:31;;;;;;;2.03;0.40;;;;;;;15.35;72.39;99906.44;4986946;28;20046;-81
2023/08/01 01:39:00;;;;;;;2.90;0.30;;;;;;;15.18;72.13;99875.75;4982373;28;20431;-81
2023/08/01 01:41:27;;;;;;;0.95;0.20;;;;;;;15.37;72.45;99912.44;4976578;28;20413;-82
2023/08/01 01:43:53;;;;;;;0.60;0.20;;;;;;;15.35;72.43;99909.91;4982266;28;20047;-81
2023/08/01 01:46:20;;;;;;;1.85;0.40;;;;;;;15.33;72.27;99903.88;4980812;28;20054;-82
2023/08/01 01:48:47;;;;;;;1.00;0.30;;;;;;;15.31;72.41;99908.34;4987655;28;20047;-81
2023/08/01 01:51:14;;;;;;;2.38;0.40;;;;;;;15.30;72.65;99899.63;4979159;28;20046;-81
2023/08/01 01:53:41;;;;;;;5.80;0.77;;;;;;;15.24;72.50;99893.81;4990024;28;20050;-82
2023/08/01 01:56:10;;;;;;;2.17;0.40;;;;;;;15.28;72.61;99898.00;4983817;28;20538;-82
2023/08/01 01:58:37;;;;;;;4.22;0.30;;;;;;;15.26;72.71;99892.81;4984557;28;20053;-82
2023/08/01 02:01:04;;;;;;;3.08;0.28;;;;;;;15.25;72.61;99882.38;4979945;28;20050;-83
2023/08/01 02:03:31;;;;;;;0.52;0.20;;;;;;;15.02;72.62;99844.94;4978634;28;20053;-82
2023/08/01 02:05:58;;;;;;;1.10;0.30;;;;;;;15.22;72.87;99882.53;4986280;28;20046;-82
2023/08/01 02:08:25;;;;;;;4.63;0.47;;;;;;;15.16;72.56;99870.53;4984001;28;20455;-81
2023/08/01 02:10:52;;;;;;;3.22;0.40;;;;;;;15.19;73.08;99873.00;4987487;28;20046;-82
2023/08/01 02:13:20;;;;;;;7.03;0.32;;;;;;;15.09;72.98;99849.91;4987254;28;20706;-82
2023/08/01 02:15:47;;;;;;;3.08;0.30;;;;;;;15.18;73.22;99862.59;4984627;28;20046;-81
2023/08/01 02:18:14;;;;;;;3.60;0.95;;;;;;;14.87;73.06;99810.72;4975458;28;20526;-75
2023/08/01 02:20:41;;;;;;;1.85;0.32;;;;;;;15.14;72.95;99853.13;4976402;28;20050;-76
2023/08/01 02:23:08;;;;;;;1.92;0.40;;;;;;;15.14;73.29;99859.28;4971123;28;20510;-75
2023/08/01 02:25:39;;;;;;;1.77;0.95;;;;;;;15.13;73.40;99854.91;4980282;28;20061;-76
2023/08/01 02:28:06;;;;;;;2.95;0.50;;;;;;;15.13;73.27;99856.72;4974600;28;20054;-76
2023/08/01 02:30:35;;;;;;;8.70;0.32;;;;;;;15.12;73.37;99849.75;4974466;28;20062;-76
2023/08/01 02:33:02;;;;;;;1.45;0.40;;;;;;;15.10;73.29;99851.59;4979944;28;20084;-76
2023/08/01 02:35:29;;;;;;;3.53;0.45;;;;;;;15.12;73.55;99849.75;4979611;28;20047;-76
2023/08/01 02:37:56;;;;;;;4.05;0.40;;;;;;;15.08;73.76;99843.78;4978764;28;20046;-73
2023/08/01 02:40:23;;;;;;;3.58;0.50;;;;;;;15.04;73.65;99832.56;4976249;28;20054;-74
2023/08/01 02:42:50;;;;;;;2.70;0.40;;;;;;;15.11;73.70;99850.66;4976908;28;20055;-74
2023/08/01 02:45:17;;;;;;;7.60;0.50;;;;;;;15.10;73.93;99846.34;4972376;28;20050;-75
2023/08/01 02:47:45;;;;;;;3.00;0.47;;;;;;;15.09;74.00;99845.50;4980081;28;20046;-73
2023/08/01 02:50:12;;;;;;;5.18;0.52;;;;;;;15.09;74.18;99847.28;4972060;28;20049;-75
2023/08/01 02:52:39;;;;;;;1.85;0.40;;;;;;;15.11;74.24;99840.13;4977986;28;20050;-73
2023/08/01 02:55:07;;;;;;;2.47;0.75;;;;;;;15.11;74.17;99848.03;4978329;28;20565;-73
2023/08/01 02:57:34;;;;;;;2.60;0.38;;;;;;;15.08;74.63;99843.78;4976832;28;20043;-74
2023/08/01 03:00:04;;;;;;;3.47;0.50;;;;;;;15.09;74.54;99831.50;4977437;28;20055;-74
2023/08/01 03:02:31;;;;;;;4.90;0.50;;;;;;;15.12;74.86;99841.88;4979282;28;20144;-75
2023/08/01 03:04:59;;;;;;;1.80;0.45;;;;;;;15.12;74.83;99839.22;4978952;28;20500;-74
2023/08/01 03:07:26;;;;;;;4.85;0.45;;;;;;;15.13;74.84;99840.91;4975780;28;20134;-74
2023/08/01 03:09:55;;;;;;;6.05;1.30;;;;;;;15.12;74.90;99840.06;4980904;28;20046;-75
2023/08/01 03:12:21;;;;;;;2.75;0.40;;;;;;;15.14;74.96;99834.72;4980284;28;20054;-74
2023/08/01 03:14:48;;;;;;;2.78;0.43;;;;;;;15.14;75.14;99834.72;4978755;28;20046;-74
2023/08/01 03:17:16;;;;;;;3.92;0.50;;;;;;;15.15;75.22;99829.38;4977196;28;20064;-74
2023/08/01 03:19:43;;;;;;;2.08;0.43;;;;;;;15.12;75.40;99826.09;4977023;28;20050;-74
2023/08/01 03:22:12;;;;;;;2.53;1.15;;;;;;;15.07;75.60;99814.00;4982573;28;20051;-73
2023/08/01 03:24:39;;;;;;;3.45;0.70;;;;;;;15.19;75.52;99835.34;4976590;28;20531;-74
2023/08/01 03:27:06;;;;;;;6.18;0.82;;;;;;;15.20;75.60;99837.06;4971619;28;20106;-74
2023/08/01 03:29:33;;;;;;;4.15;0.63;;;;;;;15.20;75.87;99826.53;4971082;28;20061;-74
2023/08/01 03:32:00;;;;;;;1.50;0.50;;;;;;;15.21;75.50;99825.59;4976064;28;20050;-74
2023/08/01 03:34:27;;;;;;;1.42;0.50;;;;;;;15.24;75.72;99822.78;4975554;28;20049;-73
2023/08/01 03:36:54;;;;;;;2.20;0.70;;;;;;;15.26;75.80;99823.56;4975070;28;20051;-73
2023/08/01 03:39:22;;;;;;;4.70;0.50;;;;;;;15.27;75.98;99825.25;4979038;28;20433;-74
2023/08/01 03:41:49;;;;;;;1.70;0.50;;;;;;;15.28;75.74;99819.06;4979878;28;20050;-74
2023/08/01 03:44:17;;;;;;;4.68;0.60;;;;;;;15.31;75.73;99813.63;4974019;28;20047;-74
2023/08/01 03:46:44;;;;;;;4.22;1.27;;;;;;;15.30;75.74;99812.78;4971224;28;20116;-73
2023/08/01 03:49:10;;;;;;;4.22;0.30;;;;;;;15.31;75.54;99816.25;4973429;28;20137;-74
2023/08/01 03:51:37;;;;;;;1.90;0.45;;;;;;;15.34;75.59;99817.88;4978208;28;20057;-73
2023/08/01 03:54:04;;;;;;;3.53;0.55;;;;;;;15.33;75.71;99814.41;4976752;28;20050;-73
2023/08/01 03:56:33;;;;;;;5.22;0.68;;;;;;;15.35;75.49;99815.19;4978143;28;20054;-74
2023/08/01 03:58:59;;;;;;;1.95;0.60;;;;;;;15.36;75.74;99811.59;4979090;28;20053;-74
2023/08/01 04:01:26;;;;;;;4.65;1.00;;;;;;;15.29;75.43;99803.19;4979051;28;20188;-74
2023/08/01 04:03:53;;;;;;;6.60;1.05;;;;;;;15.31;75.80;99808.38;4979682;28;20050;-73
2023/08/01 04:06:20;;;;;;;2.67;0.40;;;;;;;15.29;75.51;99797.09;4980523;28;20057;-74
2023/08/01 04:08:47;;;;;;;2.88;0.57;;;;;;;15.36;75.69;99795.81;4981112;28;20046;-75
2023/08/01 04:11:14;;;;;;;5.72;0.50;;;;;;;15.39;75.78;99806.19;4981927;28;20133;-74
2023/08/01 04:13:42;;;;;;;4.30;0.60;;;;;;;15.42;75.88;99798.13;4982482;28;20116;-74
2023/08/01 04:16:09;;;;;;;1.92;0.57;;;;;;;15.42;76.10;99790.22;4983477;28;20049;-74
2023/08/01 04:18:36;;;;;;;7.18;0.80;;;;;;;15.44;76.01;99795.41;4977988;28;20053;-74
2023/08/01 04:21:03;;;;;;;2.13;0.40;;;;;;;15.35;75.95;99778.34;4976219;28;20537;-73
2023/08/01 04:23:30;;;;;;;4.82;0.50;;;;;;;15.47;76.14;99792.63;4976937;28;20042;-73
2023/08/01 04:25:58;;;;;;;3.08;0.60;;;;;;;15.41;76.19;99778.00;4983969;28;20077;-74
2023/08/01 04:28:25;;;;;;;5.40;1.33;;;;;;;15.49;76.13;99791.59;4974523;28;20159;-73
2023/08/01 04:30:53;;;;;;;2.00;0.52;;;;;;;15.47;76.09;99769.78;4986001;28;20058;-75
2023/08/01 04:33:20;;;;;;;4.28;0.50;;;;;;;15.52;76.05;99780.91;4984432;28;20057;-74
2023/08/01 04:35:49;;;;;;;3.63;0.75;;;;;;;15.55;76.13;99779.03;4981026;28;20058;-74
2023/08/01 04:38:16;;;;;;;3.55;0.68;;;;;;;15.56;76.35;99781.56;4982720;28;20130;-73
2023/08/01 04:40:43;;;;;;;6.15;0.57;;;;;;;15.59;76.75;99770.88;4983206;28;20061;-74
2023/08/01 04:43:11;;;;;;;3.42;0.68;;;;;;;15.60;77.17;99764.69;4985913;28;20831;-73
2023/08/01 04:45:38;;;;;;;5.47;0.95;;;;;;;15.66;77.35;99771.41;4977375;28;20066;-74
2023/08/01 04:48:06;;;;;;;6.57;1.20;;;;;;;15.68;77.97;99766.91;4972364;28;20142;-74
2023/08/01 04:50:33;;;;;;;3.67;1.10;;;;;;;15.73;78.00;99778.88;4973699;28;20042;-73
2023/08/01 04:53:00;;;;;;;4.25;0.80;;;;;;;15.79;78.13;99777.69;4977704;28;20080;-73
2023/08/01 04:55:27;;;;;;;2.55;0.80;;;;;;;15.83;78.46;99773.97;4981810;28;20056;-74
2023/08/01 04:57:54;;;;;;;3.58;1.30;;;;;;;15.93;78.38;99776.94;4981735;28;20051;-74
2023/08/01 05:00:21;;;;;;;8.15;1.30;;;;;;;15.99;78.34;99773.94;4980755;28;20050;-74
2023/08/01 05:02:48;;;;;;;5.53;1.40;;;;;;;16.07;78.52;99776.16;4977089;28;20054;-75
2023/08/01 05:05:17;;;;;;;4.75;0.70;;;;;;;16.15;78.25;99777.41;4981357;28;20054;-74
2023/08/01 05:07:44;;;;;;;3.78;0.63;;;;;;;16.16;78.05;99762.44;4984939;28;20502;-74
2023/08/01 05:10:11;;;;;;;3.53;0.68;;;;;;;16.35;78.26;99778.88;4975982;28;20059;-74
2023/08/01 05:12:38;;;;;;;3.40;0.50;;;;;;;16.45;78.19;99773.06;4982769;28;20057;-73
2023/08/01 05:15:06;;;;;;;2.13;0.50;;;;;;;16.53;78.18;99768.19;4976988;28;20059;-74
2023/08/01 05:17:33;;;;;;;7.60;0.70;;;;;;;16.64;77.87;99771.03;4979525;28;20085;-74
2023/08/01 05:20:00;;;;;;;5.88;0.60;;;;;;;16.73;77.48;99775.75;4977320;28;20143;-74
2023/08/01 05:22:28;;;;;;;2.78;0.70;;;;;;;16.78;77.41;99763.19;4976268;28;20101;-74
2023/08/01 05:24:55;;;;;;;3.03;1.05;;;;;;;16.93;77.08;99771.13;4980300;28;20507;-73
2023/08/01 05:27:22;;;;;;;2.65;0.50;;;;;;;17.03;76.91;99773.09;4978988;28;20708;-74
2023/08/01 05:29:49;;;;;;;2.35;0.77;;;;;;;17.08;76.66;99762.28;4977705;28;20057;-74
2023/08/01 05:32:16;;;;;;;1.88;0.40;;;;;;;17.21;76.45;99781.69;4975421;28;20065;-74
2023/08/01 05:34:43;;;;;;;5.53;0.40;;;;;;;17.30;76.24;99782.88;4976199;28;20047;-73
2023/08/01 05:37:10;;;;;;;4.40;0.32;;;;;;;17.29;75.53;99760.94;4977374;28;20072;-74
2023/08/01 05:39:38;;;;;;;2.67;0.70;;;;;;;17.47;75.40;99772.13;4984416;28;20042;-74
2023/08/01 05:42:08;;;;;;;1.60;0.40;;;;;;;17.46;75.38;99759.88;4973679;28;20047;-74
2023/08/01 05:44:35;;;;;;;1.40;0.30;;;;;;;17.62;74.91;99770.31;4972867;28;20054;-74
2023/08/01 05:47:02;;;;;;;2.85;0.40;;;;;;;17.65;74.58;99767.50;4976144;28;20057;-74
2023/08/01 05:49:29;;;;;;;1.73;0.30;;;;;;;17.76;74.31;99775.56;4985980;28;20480;-74
2023/08/01 05:51:56;;;;;;;3.83;1.02;;;;;;;17.78;74.13;99764.94;4973693;28;20054;-73
2023/08/01 05:54:23;;;;;;;2.17;0.35;;;;;;;17.83;74.14;99762.84;4982544;28;20733;-74
2023/08/01 05:56:51;;;;;;;3.80;0.55;;;;;;;17.91;74.00;99770.28;4976929;28;20065;-74
2023/08/01 05:59:19;;;;;;;3.40;0.43;;;;;;;17.92;73.67;99762.25;4980247;28;20046;-74
2023/08/01 06:01:46;;;;;;;1.88;0.55;;;;;;;17.98;73.47;99768.91;4979390;28;20049;-74
2023/08/01 06:04:13;;;;;;;1.67;0.30;;;;;;;18.01;73.28;99765.22;4978339;28;20086;-74
2023/08/01 06:06:40;;;;;;;1.80;0.30;;;;;;;18.02;72.89;99756.38;4980081;28;20053;-74
2023/08/01 06:09:07;;;;;;;3.42;0.73;;;;;;;18.03;73.15;99753.63;4979385;28;20057;-74
2023/08/01 06:11:34;;;;;;;3.38;0.40;;;;;;;18.06;73.08;99758.69;4979365;28;20081;-74
2023/08/01 06:14:03;;;;;;;2.72;0.40;;;;;;;18.06;72.90;99744.63;4977748;28;20053;-74
2023/08/01 06:16:29;;;;;;;6.20;0.50;;;;;;;18.08;72.69;99745.41;4977012;28;20467;-74
2023/08/01 06:18:57;;;;;;;2.53;0.50;;;;;;;18.12;72.70;99750.34;4981302;28;20105;-75
2023/08/01 06:21:24;;;;;;;3.75;0.40;;;;;;;18.13;72.79;99757.34;4976959;28;20047;-74
2023/08/01 06:23:51;;;;;;;2.30;0.28;;;;;;;18.15;72.63;99758.09;4979987;28;20855;-74
2023/08/01 06:26:18;;;;;;;4.45;0.50;;;;;;;18.10;72.68;99741.72;4973026;28;20101;-73
2023/08/01 06:28:45;;;;;;;3.05;0.30;;;;;;;18.19;72.53;99756.94;4977763;28;20050;-73
2023/08/01 06:31:13;;;;;;;2.15;0.40;;;;;;;18.22;72.83;99763.84;4982099;28;20553;-73
2023/08/01 06:33:40;;;;;;;3.72;0.50;;;;;;;18.25;72.42;99762.78;4974420;28;20663;-74
2023/08/01 06:36:07;;;;;;;3.25;0.40;;;;;;;18.27;72.64;99766.16;4976990;28;20051;-74
2023/08/01 06:38:34;;;;;;;2.50;1.20;;;;;;;18.27;72.11;99760.88;4979256;28;20049;-74
2023/08/01 06:41:01;;;;;;;0.98;0.30;;;;;;;18.23;72.36;99757.59;4980496;28;20060;-74
2023/08/01 06:43:28;;;;;;;7.72;0.50;;;;;;;18.33;72.27;99763.97;4978329;28;20419;-74
2023/08/01 06:45:55;;;;;;;3.15;0.35;;;;;;;18.28;72.16;99736.13;4974906;28;20054;-74
2023/08/01 06:48:23;;;;;;;1.33;0.38;;;;;;;18.39;72.09;99752.13;4985340;28;20054;-73
2023/08/01 06:50:50;;;;;;;1.48;0.77;;;;;;;18.39;72.03;99750.34;4978039;28;20631;-72
2023/08/01 06:53:17;;;;;;;3.22;0.65;;;;;;;18.41;71.72;99752.84;4973680;28;20054;-74
2023/08/01 06:55:44;;;;;;;2.47;0.40;;;;;;;18.37;72.02;99738.16;4975833;28;20042;-74
2023/08/01 06:58:11;;;;;;;1.70;0.40;;;;;;;18.48;71.76;99756.78;4978351;28;20046;-74
2023/08/01 07:00:38;;;;;;;2.03;0.52;;;;;;;18.50;71.43;99754.03;4978334;28;20050;-73
2023/08/01 07:03:05;;;;;;;3.17;0.40;;;;;;;18.53;71.56;99752.06;4981345;28;20490;-74
2023/08/01 07:05:33;;;;;;;3.70;0.65;;;;;;;18.35;71.47;99724.19;4978398;28;20068;-74
2023/08/01 07:08:00;;;;;;;3.28;0.40;;;;;;;18.54;71.34;99748.44;4984357;28;20718;-73
2023/08/01 07:10:27;;;;;;;3.60;0.70;;;;;;;18.56;71.23;99751.84;4982529;28;20046;-74
2023/08/01 07:12:54;;;;;;;3.85;0.32;;;;;;;18.61;71.39;99760.31;4978678;28;20758;-74
2023/08/01 07:15:21;;;;;;;1.83;0.40;;;;;;;18.63;71.00;99763.69;4974735;28;20060;-74
2023/08/01 07:17:48;;;;;;;2.70;0.68;;;;;;;18.66;71.16;99759.97;4977835;28;20503;-73
2023/08/01 07:20:15;;;;;;;6.22;0.50;;;;;;;18.68;71.12;99758.09;4976471;28;20151;-74
2023/08/01 07:22:43;;;;;;;2.05;0.40;;;;;;;18.71;70.96;99755.22;4977261;28;20062;-74
2023/08/01 07:25:11;;;;;;;1.25;0.35;;;;;;;18.74;70.98;99754.22;4981034;28;20514;-74
2023/08/01 07:27:38;;;;;;;0.98;0.40;;;;;;;18.68;70.81;99738.72;4985700;28;20581;-74
2023/08/01 07:30:06;;;;;;;2.28;0.40;;;;;;;18.77;70.48;99751.34;4979118;28;20057;-74
2023/08/01 07:32:33;;;;;;;3.17;0.40;;;;;;;18.78;70.34;99759.16;4978692;28;20798;-74
2023/08/01 07:35:00;;;;;;;3.88;0.40;;;;;;;18.79;70.35;99746.81;4977380;28;20065;-74
2023/08/01 07:37:28;;;;;;;2.72;0.50;;;;;;;18.80;70.56;99748.50;4977192;28;20053;-74
2023/08/01 07:39:57;;;;;;;2.85;0.50;;;;;;;18.77;70.34;99733.66;4981705;28;20086;-74
2023/08/01 07:42:24;;;;;;;1.85;0.47;;;;;;;18.80;71.10;99732.63;4979045;28;20057;-74
2023/08/01 07:44:51;;;;;;;1.95;0.40;;;;;;;18.94;70.60;99737.78;4972648;28;20043;-74
2023/08/01 07:47:18;;;;;;;2.17;0.38;;;;;;;19.05;70.57;99739.69;4976897;28;20134;-74
2023/08/01 07:49:45;;;;;;;2.67;0.50;;;;;;;19.09;70.60;99723.47;4986481;28;20578;-74
2023/08/01 07:52:12;;;;;;;1.92;0.40;;;;;;;19.24;70.27;99733.94;4977383;28;20052;-74
2023/08/01 07:54:38;;;;;;;1.90;0.50;;;;;;;19.29;70.14;99740.59;4979827;28;20057;-73
2023/08/01 07:57:07;;;;;;;3.40;0.50;;;;;;;19.34;69.88;99734.97;4979446;28;20422;-75
2023/08/01 07:59:34;;;;;;;1.55;0.40;;;;;;;19.38;69.17;99739.13;4981154;28;20054;-74
2023/08/01 08:02:01;;;;;;;1.30;0.40;;;;;;;19.42;68.92;99735.28;4984304;28;20046;-73
2023/08/01 08:04:28;;;;;;;2.80;0.40;;;;;;;19.47;68.25;99734.97;4980309;28;20050;-74
2023/08/01 08:06:59;;;;;;;4.30;0.50;;;;;;;19.48;68.31;99736.63;4979521;28;20050;-74
2023/08/01 08:09:26;;;;;;;3.40;0.30;;;;;;;19.51;68.30;99731.13;4979233;28;20042;-74
2023/08/01 08:11:53;;;;;;;2.58;0.40;;;;;;;19.53;68.41;99735.34;4981831;28;20061;-74
2023/08/01 08:14:23;;;;;;;3.75;0.40;;;;;;;19.52;68.28;99716.91;4980211;28;20054;-73
2023/08/01 08:16:50;;;;;;;1.42;1.02;;;;;;;19.60;67.95;99724.31;4981041;28;20050;-74
2023/08/01 08:19:17;;;;;;;0.55;0.30;;;;;;;19.52;67.32;99704.53;4979694;28;20134;-74
2023/08/01 08:21:43;;;;;;;2.88;0.35;;;;;;;19.62;67.06;99711.81;4977598;28;20061;-74
2023/08/01 08:24:10;;;;;;;1.98;0.40;;;;;;;19.71;66.71;99711.16;4980245;28;20053;-74
2023/08/01 08:26:39;;;;;;;2.63;0.30;;;;;;;19.69;67.19;99702.47;4984666;28;20080;-74
2023/08/01 08:29:06;;;;;;;2.00;0.25;;;;;;;19.75;66.49;99705.53;4983017;28;20565;-74
2023/08/01 08:31:35;;;;;;;1.85;0.30;;;;;;;19.90;66.15;99713.31;4985943;28;20058;-74
2023/08/01 08:34:02;;;;;;;1.67;0.30;;;;;;;19.94;65.59;99715.59;4976932;28;20765;-73
2023/08/01 08:36:29;;;;;;;2.88;0.30;;;;;;;20.00;65.73;99714.28;4979107;28;20141;-74
2023/08/01 08:38:56;;;;;;;2.03;0.32;;;;;;;19.99;65.86;99702.84;4981482;28;20054;-74
2023/08/01 08:41:26;;;;;;;1.38;0.30;;;;;;;20.14;66.05;99721.22;4983175;28;20053;-75
2023/08/01 08:43:57;;;;;;;0.70;0.30;;;;;;;20.20;65.09;99715.44;4983524;28;20125;-74
2023/08/01 08:46:28;;;;;;;2.13;0.40;;;;;;;20.25;64.84;99715.13;4974188;28;20165;-74
2023/08/01 08:48:57;;;;;;;5.97;0.30;;;;;;;20.32;65.10;99718.97;4984720;28;20058;-73
2023/08/01 08:51:27;;;;;;;1.23;0.30;;;;;;;20.35;65.36;99719.63;4979111;28;20046;-74
2023/08/01 08:53:55;;;;;;;0.63;0.35;;;;;;;20.39;65.03;99713.09;4978370;28;20050;-76
2023/08/01 08:56:23;;;;;;;1.00;0.30;;;;;;;20.41;65.07;99707.69;4979533;28;20056;-74
2023/08/01 08:58:50;;;;;;;2.60;0.40;;;;;;;20.44;64.89;99707.47;4979029;28;20050;-74
2023/08/01 09:01:19;;;;;;;1.52;0.30;;;;;;;20.49;63.77;99709.75;4976721;28;20050;-74
2023/08/01 09:03:46;;;;;;;1.52;0.30;;;;;;;20.53;63.57;99711.25;4985172;28;20053;-74
2023/08/01 09:06:17;;;;;;;2.00;0.25;;;;;;;20.55;62.20;99706.66;4984451;28;20046;-74
2023/08/01 09:08:52;;;;;;;1.23;0.35;;;;;;;20.61;62.28;99704.38;4972503;28;20138;-74
2023/08/01 09:11:19;;;;;;;1.38;0.20;;;;;;;20.57;62.33;99684.34;4972022;28;20047;-74
2023/08/01 09:13:46;;;;;;;1.50;0.30;;;;;;;20.70;63.11;99708.13;4975850;28;20050;-74
2023/08/01 09:16:14;;;;;;;1.58;0.30;;;;;;;20.74;62.59;99701.59;4983309;28;20074;-74
2023/08/01 09:18:52;;;;;;;1.98;0.50;;;;;;;20.79;62.60;99702.09;4979886;28;20046;-74
2023/08/01 09:21:20;;;;;;;1.23;0.30;;;;;;;20.83;62.35;99692.06;4978832;28;20054;-75
2023/08/01 09:23:48;;;;;;;3.05;0.70;;;;;;;20.87;62.46;99698.84;4978708;28;20047;-73
2023/08/01 09:26:15;;;;;;;0.98;0.30;;;;;;;20.91;62.34;99699.44;4980358;28;20146;-74
2023/08/01 09:28:42;;;;;;;1.67;0.30;;;;;;;20.92;62.08;99696.69;4983762;28;20045;-74
2023/08/01 09:31:11;;;;;;;0.65;0.30;;;;;;;20.95;61.78;99701.75;4980612;28;20063;-73
2023/08/01 09:33:41;;;;;;;3.33;0.32;;;;;;;20.93;61.28;99692.22;4985244;28;20097;-74
2023/08/01 09:36:08;;;;;;;2.20;0.30;;;;;;;21.02;61.55;99702.94;4975362;28;20053;-75
2023/08/01 09:38:37;;;;;;;1.67;0.68;;;;;;;21.02;61.45;99707.41;4981082;28;20396;-74
2023/08/01 09:41:05;;;;;;;0.60;0.40;;;;;;;21.03;61.41;99703.78;4973107;28;20047;-76
2023/08/01 09:43:35;;;;;;;1.30;0.40;;;;;;;21.02;61.32;99696.78;4976437;28;20046;-74
2023/08/01 09:46:03;;;;;;;2.38;0.45;;;;;;;21.04;61.24;99702.84;4979521;28;20081;-75
2023/08/01 09:48:31;;;;;;;1.42;0.30;;;;;;;21.02;61.50;99692.31;4972968;28;20424;-74
2023/08/01 09:51:08;;;;;;;0.73;0.32;;;;;;;21.04;61.59;99690.41;4975018;28;20055;-74
2023/08/01 09:53:47;;;;;;;0.90;0.30;;;;;;;21.06;61.33;99699.09;4976665;28;20133;-74
2023/08/01 09:56:17;;;;;;;2.67;0.30;;;;;;;21.09;61.19;99698.84;4979220;28;20054;-75
2023/08/01 09:58:45;;;;;;;0.65;0.30;;;;;;;21.11;61.29;99682.78;4977744;28;20504;-74
2023/08/01 10:01:14;;;;;;;2.13;0.40;;;;;;;21.17;60.66;99684.94;4980213;28;20046;-75
2023/08/01 10:03:45;;;;;;;2.50;0.30;;;;;;;21.18;61.37;99676.03;4976185;28;20142;-76
2023/08/01 10:06:13;;;;;;;0.80;0.35;;;;;;;21.17;61.18;99682.28;4983139;28;20049;-75
2023/08/01 10:08:42;;;;;;;0.88;0.30;;;;;;;21.20;60.81;99679.38;4981892;28;20133;-75
2023/08/01 10:11:10;;;;;;;0.45;0.35;;;;;;;21.22;60.87;99692.56;4976014;28;20062;-74
2023/08/01 10:13:37;;;;;;;4.13;0.40;;;;;;;21.23;60.85;99686.25;4978049;28;20046;-74
2023/08/01 10:16:06;;;;;;;1.23;0.30;;;;;;;21.24;60.67;99686.16;4977275;28;20058;-74
2023/08/01 10:18:34;;;;;;;3.03;0.25;;;;;;;21.27;60.79;99685.06;4979144;28;20047;-75
2023/08/01 10:21:02;;;;;;;0.70;0.30;;;;;;;21.25;60.41;99676.38;4978366;28;20054;-75
2023/08/01 10:23:29;;;;;;;0.70;0.22;;;;;;;21.24;60.74;99674.69;4975099;28;20056;-74
2023/08/01 10:26:00;;;;;;;2.38;0.47;;;;;;;21.21;61.45;99675.78;4979841;28;20056;-74
2023/08/01 10:28:34;;;;;;;2.45;0.30;;;;;;;21.26;60.51;99684.22;4980933;28;20061;-75
2023/08/01 10:31:11;;;;;;;1.00;0.22;;;;;;;21.23;60.07;99679.16;4982016;28;20065;-74
2023/08/01 10:33:38;;;;;;;1.13;0.30;;;;;;;21.20;60.20;99690.00;4977272;28;20057;-74
2023/08/01 10:36:16;;;;;;;1.63;0.30;;;;;;;21.14;59.68;99674.56;4981282;28;20055;-75
2023/08/01 10:38:51;;;;;;;2.55;0.30;;;;;;;21.15;59.79;99678.94;4979217;28;20244;-75
2023/08/01 10:41:27;;;;;;;1.40;0.30;;;;;;;21.15;59.96;99681.59;4979482;28;20043;-74
2023/08/01 10:44:05;;;;;;;0.60;0.20;;;;;;;21.15;59.32;99686.91;4977066;28;20050;-74
2023/08/01 10:46:46;;;;;;;3.17;0.40;;;;;;;21.09;59.46;99682.06;4976136;28;20495;-74
2023/08/01 10:49:13;;;;;;;0.50;0.20;;;;;;;21.09;59.83;99682.91;4980030;28;20121;-75
2023/08/01 10:51:40;;;;;;;1.42;0.43;;;;;;;21.10;59.53;99683.75;4980037;28;20038;-74
2023/08/01 10:54:08;;;;;;;1.98;0.30;;;;;;;21.09;59.43;99667.00;4979492;28;20056;-75
2023/08/01 10:56:36;;;;;;;4.72;0.30;;;;;;;21.09;59.94;99671.47;4978129;28;20077;-75
2023/08/01 10:59:06;;;;;;;1.08;0.30;;;;;;;21.15;59.17;99675.44;4978055;28;20137;-74
2023/08/01 11:01:45;;;;;;;2.30;0.40;;;;;;;21.15;60.16;99678.94;4979458;28;20144;-74
2023/08/01 11:04:15;;;;;;;0.52;0.20;;;;;;;21.15;59.79;99673.63;4980483;28;20053;-75
2023/08/01 11:06:46;;;;;;;1.27;0.22;;;;;;;21.15;59.60;99673.63;4988481;28;20050;-74
2023/08/01 11:09:23;;;;;;;1.70;0.30;;;;;;;21.15;59.68;99683.41;4979710;28;20053;-75
2023/08/01 11:11:53;;;;;;;2.00;0.28;;;;;;;21.14;59.45;99684.34;4974327;28;20062;-74
2023/08/01 11:14:22;;;;;;;0.73;0.22;;;;;;;21.13;59.38;99680.84;4980568;28;20062;-74
2023/08/01 11:16:50;;;;;;;2.75;0.40;;;;;;;21.08;59.09;99677.72;4978641;28;20133;-75
2023/08/01 11:19:21;;;;;;;2.45;0.30;;;;;;;21.08;59.12;99680.38;4982079;28;20057;-75
2023/08/01 11:21:48;;;;;;;0.40;0.32;;;;;;;21.04;59.09;99668.31;4979577;28;20422;-75
2023/08/01 11:24:15;;;;;;;0.75;0.30;;;;;;;21.08;59.14;99677.72;4979583;28;20058;-75
2023/08/01 11:26:43;;;;;;;1.40;0.20;;;;;;;21.01;58.37;99668.56;4979858;28;20046;-74
2023/08/01 11:29:13;;;;;;;1.92;0.25;;;;;;;20.97;58.36;99664.44;4985432;28;20664;-75
2023/08/01 11:31:40;;;;;;;1.58;0.30;;;;;;;20.99;58.22;99681.09;4983186;28;20081;-74
2023/08/01 11:34:09;;;;;;;0.60;0.22;;;;;;;20.93;58.78;99671.81;4975676;28;20047;-74
2023/08/01 11:36:38;;;;;;;4.18;0.93;;;;;;;21.00;58.53;99688.09;4975428;28;20039;-74